Date,TemperatureHighF,TemperatureAvgF,TemperatureLowF,DewpointHighF,DewpointAvgF,DewpointLowF,HumidityHigh,HumidityAvg,HumidityLow,PressureMaxIn,PressureMinIn,WindSpeedMaxMPH,WindSpeedAvgMPH,GustSpeedMaxMPH,PrecipitationSumIn
2012-12-1,48.6,42.0,37.3,43.6,37.4,35.3,95,84,72,29.77,29.53,24,7,24,0.29
2012-12-2,45.3,39.5,36.7,41.3,33.8,27.0,96,81,61,29.93,29.22,40,15,40,0.39
2012-12-3,45.0,39.8,35.7,33.4,29.7,27.5,75,67,57,30.15,29.93,24,10,24,0.04
2012-12-4,46.9,42.3,36.1,40.2,36.3,28.1,92,79,66,29.98,29.78,31,10,31,0.04
2012-12-5,47.9,37.1,30.6,41.1,31.3,23.9,94,80,69,30.25,29.77,25,7,25,0.04
2012-12-6,33.7,31.3,29.9,30.4,27.7,24.9,94,86,71,30.21,30.07,28,7,28,0.00
2012-12-7,36.4,31.5,25.9,30.7,27.5,19.4,94,85,74,30.12,29.84,40,14,40,0.01
2012-12-8,29.4,23.9,14.6,24.0,19.7,11.9,92,84,74,30.41,30.02,31,8,31,0.00
2012-12-9,28.6,23.1,14.4,25.3,18.9,10.4,94,84,73,30.57,30.27,15,5,15,0.00
2012-12-10,45.6,33.0,26.3,37.6,30.7,24.8,96,92,67,30.34,30.07,22,5,22,0.15
2012-12-11,39.4,35.6,31.0,32.4,30.1,27.5,93,80,68,30.07,29.60,33,8,33,0.08
2012-12-12,39.4,31.9,25.8,36.5,29.8,24.1,95,92,82,30.02,29.61,10,2,10,0.05
2012-12-13,35.6,24.8,17.9,28.8,21.9,15.7,94,89,72,30.12,29.93,12,4,12,0.01
2012-12-14,30.1,24.0,15.5,28.8,22.5,13.0,95,94,90,30.00,29.87,4,0,4,0.01
2012-12-15,31.1,27.5,23.3,27.3,24.3,20.9,95,88,69,30.01,29.69,14,4,14,0.02
2012-12-16,34.4,30.9,28.3,29.9,23.7,21.0,90,75,62,29.87,29.34,30,14,30,0.01
2012-12-17,41.1,34.1,26.2,32.1,25.4,17.4,91,71,59,29.91,29.32,51,28,51,0.00
2012-12-18,35.4,25.3,19.7,20.9,17.2,14.2,90,72,50,30.09,29.91,25,8,25,0.00
2012-12-19,30.4,25.1,17.2,18.5,15.8,10.9,79,68,57,30.20,30.06,26,11,26,0.00
2012-12-20,41.4,35.1,29.7,24.5,19.6,15.2,65,53,40,30.06,29.85,29,14,29,0.00
2012-12-21,39.2,36.5,32.8,27.7,24.5,18.6,78,62,47,29.93,29.84,21,6,21,0.00
2012-12-22,36.1,34.4,30.5,28.4,27.2,26.0,85,75,67,29.89,29.74,31,10,31,0.00
2012-12-23,35.2,32.5,27.8,27.6,25.2,21.3,86,74,66,29.97,29.62,31,10,31,0.00
2012-12-24,33.7,28.7,25.0,27.5,25.5,21.1,100,88,67,30.26,29.72,34,12,34,0.00
2012-12-25,29.3,24.2,18.5,24.6,20.8,15.2,94,87,75,30.27,29.89,20,8,20,0.00
2012-12-26,33.2,27.4,23.7,29.8,25.0,21.6,100,91,80,29.99,29.84,12,4,12,0.10
2012-12-27,31.0,27.6,25.9,29.7,26.2,24.5,95,95,93,30.22,29.98,10,1,10,0.05
2012-12-28,30.6,23.5,15.8,26.0,20.6,13.0,95,89,75,30.33,30.21,13,3,13,0.02
2012-12-29,28.7,20.3,12.2,21.7,16.7,8.4,93,86,66,30.36,30.20,12,3,12,0.01
2012-12-30,25.0,20.7,14.8,23.2,18.9,12.6,100,92,91,30.41,30.28,12,2,12,0.00
2012-12-31,23.1,18.5,14.2,21.1,16.6,11.9,100,92,90,30.57,30.39,9,2,9,0.00